sensor_id;sensor_type;location;lat;lon;timestamp;temperature;humidity
10083;DHT22;5080;48.528;8.078;2022-10-31T00:01:50;13.80;99.90
10083;DHT22;5080;48.528;8.078;2022-10-31T00:04:18;13.80;99.90
10083;DHT22;5080;48.528;8.078;2022-10-31T00:06:45;13.80;99.90
10083;DHT22;5080;48.528;8.078;2022-10-31T00:09:12;13.80;99.90
10083;DHT22;5080;48.528;8.078;2022-10-31T00:11:38;13.90;99.90
10083;DHT22;5080;48.528;8.078;2022-10-31T00:14:05;13.90;99.90
10083;DHT22;5080;48.528;8.078;2022-10-31T00:16:32;13.90;99.90
10083;DHT22;5080;48.528;8.078;2022-10-31T00:19:01;13.80;99.90
10083;DHT22;5080;48.528;8.078;2022-10-31T00:21:30;13.80;99.90
10083;DHT22;5080;48.528;8.078;2022-10-31T00:23:58;13.90;99.90
10083;DHT22;5080;48.528;8.078;2022-10-31T00:26:26;13.90;99.90
10083;DHT22;5080;48.528;8.078;2022-10-31T00:28:53;13.90;99.90
10083;DHT22;5080;48.528;8.078;2022-10-31T00:31:20;13.90;99.90
10083;DHT22;5080;48.528;8.078;2022-10-31T00:33:46;13.90;99.90
10083;DHT22;5080;48.528;8.078;2022-10-31T00:36:15;13.90;99.90
10083;DHT22;5080;48.528;8.078;2022-10-31T00:38:44;13.80;99.90
10083;DHT22;5080;48.528;8.078;2022-10-31T00:41:12;13.70;99.90
10083;DHT22;5080;48.528;8.078;2022-10-31T00:43:39;13.70;99.90
10083;DHT22;5080;48.528;8.078;2022-10-31T00:46:05;13.70;99.90
10083;DHT22;5080;48.528;8.078;2022-10-31T00:48:32;13.70;99.90
10083;DHT22;5080;48.528;8.078;2022-10-31T00:50:59;13.70;99.90
10083;DHT22;5080;48.528;8.078;2022-10-31T00:53:26;13.70;99.90
10083;DHT22;5080;48.528;8.078;2022-10-31T00:55:54;13.60;99.90
10083;DHT22;5080;48.528;8.078;2022-10-31T00:58:21;13.60;99.90
10083;DHT22;5080;48.528;8.078;2022-10-31T01:00:48;13.60;99.90
10083;DHT22;5080;48.528;8.078;2022-10-31T01:03:20;13.60;99.90
10083;DHT22;5080;48.528;8.078;2022-10-31T01:05:56;13.50;99.90
10083;DHT22;5080;48.528;8.078;2022-10-31T01:08:23;13.50;99.90
10083;DHT22;5080;48.528;8.078;2022-10-31T01:11:03;13.50;99.90
10083;DHT22;5080;48.528;8.078;2022-10-31T01:13:31;13.50;99.90
10083;DHT22;5080;48.528;8.078;2022-10-31T01:15:59;13.50;99.90
10083;DHT22;5080;48.528;8.078;2022-10-31T01:18:26;13.40;99.90
10083;DHT22;5080;48.528;8.078;2022-10-31T01:20:58;13.40;99.90
10083;DHT22;5080;48.528;8.078;2022-10-31T01:23:25;13.40;99.90
10083;DHT22;5080;48.528;8.078;2022-10-31T01:26:01;13.40;99.90
10083;DHT22;5080;48.528;8.078;2022-10-31T01:28:28;13.40;99.90
10083;DHT22;5080;48.528;8.078;2022-10-31T01:30:55;13.40;99.90
10083;DHT22;5080;48.528;8.078;2022-10-31T01:33:22;13.40;99.90
10083;DHT22;5080;48.528;8.078;2022-10-31T01:35:49;13.30;99.90
10083;DHT22;5080;48.528;8.078;2022-10-31T01:38:15;13.30;99.90
10083;DHT22;5080;48.528;8.078;2022-10-31T01:40:42;13.20;99.90
10083;DHT22;5080;48.528;8.078;2022-10-31T01:43:12;13.20;99.90
10083;DHT22;5080;48.528;8.078;2022-10-31T01:45:40;13.20;99.90
10083;DHT22;5080;48.528;8.078;2022-10-31T01:48:12;13.20;99.90
10083;DHT22;5080;48.528;8.078;2022-10-31T01:50:40;13.10;99.90
10083;DHT22;5080;48.528;8.078;2022-10-31T01:53:10;13.10;99.90
10083;DHT22;5080;48.528;8.078;2022-10-31T01:55:39;13.20;99.90
10083;DHT22;5080;48.528;8.078;2022-10-31T01:58:09;13.20;99.90
10083;DHT22;5080;48.528;8.078;2022-10-31T02:00:39;13.30;99.90
10083;DHT22;5080;48.528;8.078;2022-10-31T02:03:07;13.30;99.90
10083;DHT22;5080;48.528;8.078;2022-10-31T02:05:34;13.30;99.90
10083;DHT22;5080;48.528;8.078;2022-10-31T02:08:05;13.30;99.90
10083;DHT22;5080;48.528;8.078;2022-10-31T02:10:36;13.30;99.90
10083;DHT22;5080;48.528;8.078;2022-10-31T02:13:05;13.30;99.90
10083;DHT22;5080;48.528;8.078;2022-10-31T02:15:35;13.30;99.90
10083;DHT22;5080;48.528;8.078;2022-10-31T02:18:04;13.20;99.90
10083;DHT22;5080;48.528;8.078;2022-10-31T02:20:36;13.20;99.90
10083;DHT22;5080;48.528;8.078;2022-10-31T02:26:14;13.20;99.90
10083;DHT22;5080;48.528;8.078;2022-10-31T02:31:48;13.30;99.90
10083;DHT22;5080;48.528;8.078;2022-10-31T02:34:24;13.30;99.90
10083;DHT22;5080;48.528;8.078;2022-10-31T02:36:58;13.20;99.90
10083;DHT22;5080;48.528;8.078;2022-10-31T02:39:30;13.30;99.90
10083;DHT22;5080;48.528;8.078;2022-10-31T02:42:07;13.30;99.90
10083;DHT22;5080;48.528;8.078;2022-10-31T02:44:37;13.30;99.90
10083;DHT22;5080;48.528;8.078;2022-10-31T02:47:09;13.30;99.90
10083;DHT22;5080;48.528;8.078;2022-10-31T02:49:42;13.30;99.90
10083;DHT22;5080;48.528;8.078;2022-10-31T02:52:18;13.30;99.90
10083;DHT22;5080;48.528;8.078;2022-10-31T02:54:46;13.30;99.90
10083;DHT22;5080;48.528;8.078;2022-10-31T02:57:17;13.30;99.90
10083;DHT22;5080;48.528;8.078;2022-10-31T02:59:48;13.20;99.90
10083;DHT22;5080;48.528;8.078;2022-10-31T03:02:36;13.20;99.90
10083;DHT22;5080;48.528;8.078;2022-10-31T03:05:18;13.30;99.90
10083;DHT22;5080;48.528;8.078;2022-10-31T03:07:53;13.30;99.90
10083;DHT22;5080;48.528;8.078;2022-10-31T03:10:31;13.30;99.90
10083;DHT22;5080;48.528;8.078;2022-10-31T03:13:05;13.20;99.90
10083;DHT22;5080;48.528;8.078;2022-10-31T03:15:37;13.20;99.90
10083;DHT22;5080;48.528;8.078;2022-10-31T03:18:08;13.20;99.90
10083;DHT22;5080;48.528;8.078;2022-10-31T03:20:38;13.10;99.90
10083;DHT22;5080;48.528;8.078;2022-10-31T03:23:08;13.10;99.90
10083;DHT22;5080;48.528;8.078;2022-10-31T03:25:37;13.10;99.90
10083;DHT22;5080;48.528;8.078;2022-10-31T03:28:06;13.10;99.90
10083;DHT22;5080;48.528;8.078;2022-10-31T03:30:38;13.10;99.90
10083;DHT22;5080;48.528;8.078;2022-10-31T03:33:10;13.10;99.90
10083;DHT22;5080;48.528;8.078;2022-10-31T03:35:41;13.00;99.90
10083;DHT22;5080;48.528;8.078;2022-10-31T03:38:09;13.00;99.90
10083;DHT22;5080;48.528;8.078;2022-10-31T03:40:37;12.90;99.90
10083;DHT22;5080;48.528;8.078;2022-10-31T03:43:10;12.90;99.90
10083;DHT22;5080;48.528;8.078;2022-10-31T03:45:43;12.80;99.90
10083;DHT22;5080;48.528;8.078;2022-10-31T03:48:12;12.80;99.90
10083;DHT22;5080;48.528;8.078;2022-10-31T03:50:45;12.70;99.90
10083;DHT22;5080;48.528;8.078;2022-10-31T03:53:18;12.70;99.90
10083;DHT22;5080;48.528;8.078;2022-10-31T03:55:50;12.80;99.90
10083;DHT22;5080;48.528;8.078;2022-10-31T03:58:21;12.70;99.90
10083;DHT22;5080;48.528;8.078;2022-10-31T04:00:53;12.80;99.90
10083;DHT22;5080;48.528;8.078;2022-10-31T04:03:24;12.70;99.90
10083;DHT22;5080;48.528;8.078;2022-10-31T04:05:55;12.70;99.90
10083;DHT22;5080;48.528;8.078;2022-10-31T04:08:25;12.70;99.90
10083;DHT22;5080;48.528;8.078;2022-10-31T04:10:54;12.70;99.90
10083;DHT22;5080;48.528;8.078;2022-10-31T04:13:25;12.70;99.90
10083;DHT22;5080;48.528;8.078;2022-10-31T04:15:55;12.70;99.90
10083;DHT22;5080;48.528;8.078;2022-10-31T04:18:24;12.70;99.90
10083;DHT22;5080;48.528;8.078;2022-10-31T04:21:00;12.60;99.90
10083;DHT22;5080;48.528;8.078;2022-10-31T04:23:28;12.60;99.90
10083;DHT22;5080;48.528;8.078;2022-10-31T04:25:55;12.60;99.90
10083;DHT22;5080;48.528;8.078;2022-10-31T04:28:21;12.60;99.90
10083;DHT22;5080;48.528;8.078;2022-10-31T04:30:48;12.60;99.90
10083;DHT22;5080;48.528;8.078;2022-10-31T04:33:15;12.60;99.90
10083;DHT22;5080;48.528;8.078;2022-10-31T04:35:43;12.60;99.90
10083;DHT22;5080;48.528;8.078;2022-10-31T04:38:10;12.60;99.90
10083;DHT22;5080;48.528;8.078;2022-10-31T04:40:37;12.60;99.90
10083;DHT22;5080;48.528;8.078;2022-10-31T04:43:04;12.50;99.90
10083;DHT22;5080;48.528;8.078;2022-10-31T04:45:31;12.60;99.90
10083;DHT22;5080;48.528;8.078;2022-10-31T04:47:57;12.60;99.90
10083;DHT22;5080;48.528;8.078;2022-10-31T04:50:24;12.60;99.90
10083;DHT22;5080;48.528;8.078;2022-10-31T04:52:52;12.60;99.90
10083;DHT22;5080;48.528;8.078;2022-10-31T04:55:19;12.60;99.90
10083;DHT22;5080;48.528;8.078;2022-10-31T04:57:48;12.50;99.90
10083;DHT22;5080;48.528;8.078;2022-10-31T05:00:17;12.50;99.90
10083;DHT22;5080;48.528;8.078;2022-10-31T05:02:44;12.50;99.90
10083;DHT22;5080;48.528;8.078;2022-10-31T05:05:12;12.40;99.90
10083;DHT22;5080;48.528;8.078;2022-10-31T05:07:40;12.40;99.90
10083;DHT22;5080;48.528;8.078;2022-10-31T05:10:09;12.40;99.90
10083;DHT22;5080;48.528;8.078;2022-10-31T05:12:36;12.50;99.90
10083;DHT22;5080;48.528;8.078;2022-10-31T05:15:04;12.40;99.90
10083;DHT22;5080;48.528;8.078;2022-10-31T05:17:31;12.40;99.90
10083;DHT22;5080;48.528;8.078;2022-10-31T05:19:58;12.40;99.90
10083;DHT22;5080;48.528;8.078;2022-10-31T05:22:25;12.50;99.90
10083;DHT22;5080;48.528;8.078;2022-10-31T05:24:52;12.40;99.90
10083;DHT22;5080;48.528;8.078;2022-10-31T05:27:20;12.40;99.90
10083;DHT22;5080;48.528;8.078;2022-10-31T05:29:47;12.40;99.90
10083;DHT22;5080;48.528;8.078;2022-10-31T05:32:14;12.30;99.90
10083;DHT22;5080;48.528;8.078;2022-10-31T05:34:41;12.30;99.90
10083;DHT22;5080;48.528;8.078;2022-10-31T05:37:07;12.20;99.90
10083;DHT22;5080;48.528;8.078;2022-10-31T05:39:34;12.20;99.90
10083;DHT22;5080;48.528;8.078;2022-10-31T05:42:01;12.20;99.90
10083;DHT22;5080;48.528;8.078;2022-10-31T05:44:29;12.20;99.90
10083;DHT22;5080;48.528;8.078;2022-10-31T05:46:56;12.30;99.90
10083;DHT22;5080;48.528;8.078;2022-10-31T05:49:23;12.30;99.90
10083;DHT22;5080;48.528;8.078;2022-10-31T05:51:50;12.40;99.90
10083;DHT22;5080;48.528;8.078;2022-10-31T05:54:16;12.30;99.90
10083;DHT22;5080;48.528;8.078;2022-10-31T05:56:43;12.30;99.90
10083;DHT22;5080;48.528;8.078;2022-10-31T05:59:10;12.40;99.90
10083;DHT22;5080;48.528;8.078;2022-10-31T06:01:38;12.40;99.90
10083;DHT22;5080;48.528;8.078;2022-10-31T06:04:05;12.50;99.90
10083;DHT22;5080;48.528;8.078;2022-10-31T06:06:32;12.50;99.90
10083;DHT22;5080;48.528;8.078;2022-10-31T06:08:59;12.50;99.90
10083;DHT22;5080;48.528;8.078;2022-10-31T06:11:25;12.50;99.90
10083;DHT22;5080;48.528;8.078;2022-10-31T06:13:52;12.60;99.90
10083;DHT22;5080;48.528;8.078;2022-10-31T06:16:19;12.60;99.90
10083;DHT22;5080;48.528;8.078;2022-10-31T06:18:47;12.60;99.90
10083;DHT22;5080;48.528;8.078;2022-10-31T06:21:14;12.70;99.90
10083;DHT22;5080;48.528;8.078;2022-10-31T06:23:41;12.70;99.90
10083;DHT22;5080;48.528;8.078;2022-10-31T06:26:07;12.70;99.90
10083;DHT22;5080;48.528;8.078;2022-10-31T06:28:34;12.70;99.90
10083;DHT22;5080;48.528;8.078;2022-10-31T06:31:01;12.80;99.90
10083;DHT22;5080;48.528;8.078;2022-10-31T06:33:28;12.80;99.90
10083;DHT22;5080;48.528;8.078;2022-10-31T06:35:56;12.70;99.90
10083;DHT22;5080;48.528;8.078;2022-10-31T06:38:23;12.70;99.90
10083;DHT22;5080;48.528;8.078;2022-10-31T06:40:51;12.70;99.90
10083;DHT22;5080;48.528;8.078;2022-10-31T06:43:18;12.70;99.90
10083;DHT22;5080;48.528;8.078;2022-10-31T06:45:45;12.80;99.90
10083;DHT22;5080;48.528;8.078;2022-10-31T06:48:12;12.70;99.90
10083;DHT22;5080;48.528;8.078;2022-10-31T06:50:38;12.70;99.90
10083;DHT22;5080;48.528;8.078;2022-10-31T06:53:09;12.80;99.90
10083;DHT22;5080;48.528;8.078;2022-10-31T06:55:36;12.80;99.90
10083;DHT22;5080;48.528;8.078;2022-10-31T06:58:03;12.80;99.90
10083;DHT22;5080;48.528;8.078;2022-10-31T07:00:30;12.80;99.90
10083;DHT22;5080;48.528;8.078;2022-10-31T07:02:59;12.90;99.90
10083;DHT22;5080;48.528;8.078;2022-10-31T07:05:26;13.10;99.90
10083;DHT22;5080;48.528;8.078;2022-10-31T07:07:54;12.90;99.90
10083;DHT22;5080;48.528;8.078;2022-10-31T07:10:23;13.00;99.90
10083;DHT22;5080;48.528;8.078;2022-10-31T07:12:54;13.00;99.90
10083;DHT22;5080;48.528;8.078;2022-10-31T07:15:21;13.10;99.90
10083;DHT22;5080;48.528;8.078;2022-10-31T07:17:48;13.20;99.90
10083;DHT22;5080;48.528;8.078;2022-10-31T07:20:15;13.30;99.90
10083;DHT22;5080;48.528;8.078;2022-10-31T07:22:42;13.30;99.90
10083;DHT22;5080;48.528;8.078;2022-10-31T07:25:10;13.60;99.90
10083;DHT22;5080;48.528;8.078;2022-10-31T07:27:38;13.50;99.90
10083;DHT22;5080;48.528;8.078;2022-10-31T07:30:07;13.50;99.90
10083;DHT22;5080;48.528;8.078;2022-10-31T07:32:38;13.60;99.90
10083;DHT22;5080;48.528;8.078;2022-10-31T07:35:06;13.60;99.90
10083;DHT22;5080;48.528;8.078;2022-10-31T07:37:33;13.60;99.90
10083;DHT22;5080;48.528;8.078;2022-10-31T07:40:00;13.70;99.90
10083;DHT22;5080;48.528;8.078;2022-10-31T07:42:27;13.70;99.90
10083;DHT22;5080;48.528;8.078;2022-10-31T07:44:55;13.80;99.90
10083;DHT22;5080;48.528;8.078;2022-10-31T07:47:22;13.80;99.90
10083;DHT22;5080;48.528;8.078;2022-10-31T07:49:49;13.90;99.90
10083;DHT22;5080;48.528;8.078;2022-10-31T07:52:15;13.90;99.90
10083;DHT22;5080;48.528;8.078;2022-10-31T07:54:42;14.00;99.90
10083;DHT22;5080;48.528;8.078;2022-10-31T07:57:09;14.10;99.90
10083;DHT22;5080;48.528;8.078;2022-10-31T07:59:36;14.30;99.90
10083;DHT22;5080;48.528;8.078;2022-10-31T08:02:04;14.30;99.90
10083;DHT22;5080;48.528;8.078;2022-10-31T08:04:31;14.40;99.90
10083;DHT22;5080;48.528;8.078;2022-10-31T08:06:58;14.50;99.90
10083;DHT22;5080;48.528;8.078;2022-10-31T08:09:25;14.60;99.90
10083;DHT22;5080;48.528;8.078;2022-10-31T08:11:52;14.70;99.90
10083;DHT22;5080;48.528;8.078;2022-10-31T08:14:19;14.70;99.90
10083;DHT22;5080;48.528;8.078;2022-10-31T08:16:46;14.80;99.90
10083;DHT22;5080;48.528;8.078;2022-10-31T08:19:14;14.90;99.90
10083;DHT22;5080;48.528;8.078;2022-10-31T08:21:41;15.00;99.90
10083;DHT22;5080;48.528;8.078;2022-10-31T08:24:08;15.10;99.90
10083;DHT22;5080;48.528;8.078;2022-10-31T08:26:35;15.20;99.90
10083;DHT22;5080;48.528;8.078;2022-10-31T08:29:02;15.30;99.90
10083;DHT22;5080;48.528;8.078;2022-10-31T08:31:29;15.40;99.90
10083;DHT22;5080;48.528;8.078;2022-10-31T08:33:56;15.50;99.90
10083;DHT22;5080;48.528;8.078;2022-10-31T08:36:24;15.70;99.90
10083;DHT22;5080;48.528;8.078;2022-10-31T08:38:53;15.70;99.90
10083;DHT22;5080;48.528;8.078;2022-10-31T08:41:20;15.80;99.90
10083;DHT22;5080;48.528;8.078;2022-10-31T08:43:47;15.90;99.90
10083;DHT22;5080;48.528;8.078;2022-10-31T08:46:14;15.90;99.90
10083;DHT22;5080;48.528;8.078;2022-10-31T08:48:41;15.80;99.90
10083;DHT22;5080;48.528;8.078;2022-10-31T08:51:08;15.90;99.90
10083;DHT22;5080;48.528;8.078;2022-10-31T08:53:37;16.00;99.90
10083;DHT22;5080;48.528;8.078;2022-10-31T08:56:04;16.00;99.90
10083;DHT22;5080;48.528;8.078;2022-10-31T08:58:30;16.10;99.90
10083;DHT22;5080;48.528;8.078;2022-10-31T09:00:59;16.10;99.90
10083;DHT22;5080;48.528;8.078;2022-10-31T09:03:28;16.10;99.90
10083;DHT22;5080;48.528;8.078;2022-10-31T09:05:57;16.10;99.90
10083;DHT22;5080;48.528;8.078;2022-10-31T09:08:24;16.10;99.90
10083;DHT22;5080;48.528;8.078;2022-10-31T09:10:56;16.10;99.90
10083;DHT22;5080;48.528;8.078;2022-10-31T09:13:23;16.20;99.90
10083;DHT22;5080;48.528;8.078;2022-10-31T09:15:50;16.20;99.90
10083;DHT22;5080;48.528;8.078;2022-10-31T09:18:19;16.20;99.90
10083;DHT22;5080;48.528;8.078;2022-10-31T09:20:47;16.30;99.90
10083;DHT22;5080;48.528;8.078;2022-10-31T09:23:16;16.50;99.90
10083;DHT22;5080;48.528;8.078;2022-10-31T09:25:43;16.30;99.90
10083;DHT22;5080;48.528;8.078;2022-10-31T09:28:13;16.30;99.90
10083;DHT22;5080;48.528;8.078;2022-10-31T09:30:41;16.40;99.90
10083;DHT22;5080;48.528;8.078;2022-10-31T09:33:10;16.40;99.90
10083;DHT22;5080;48.528;8.078;2022-10-31T09:35:38;16.30;99.90
10083;DHT22;5080;48.528;8.078;2022-10-31T09:38:06;16.50;99.90
10083;DHT22;5080;48.528;8.078;2022-10-31T09:40:36;16.50;99.90
10083;DHT22;5080;48.528;8.078;2022-10-31T09:43:10;16.70;99.90
10083;DHT22;5080;48.528;8.078;2022-10-31T09:45:51;16.80;99.90
10083;DHT22;5080;48.528;8.078;2022-10-31T09:48:43;16.70;99.90
10083;DHT22;5080;48.528;8.078;2022-10-31T09:51:15;16.70;99.90
10083;DHT22;5080;48.528;8.078;2022-10-31T09:53:46;16.60;99.90
10083;DHT22;5080;48.528;8.078;2022-10-31T09:56:17;16.60;99.90
10083;DHT22;5080;48.528;8.078;2022-10-31T09:58:46;16.80;99.90
10083;DHT22;5080;48.528;8.078;2022-10-31T10:01:34;16.70;99.90
10083;DHT22;5080;48.528;8.078;2022-10-31T10:04:17;16.80;99.90
10083;DHT22;5080;48.528;8.078;2022-10-31T10:06:49;16.90;99.90
10083;DHT22;5080;48.528;8.078;2022-10-31T10:09:19;16.90;99.90
10083;DHT22;5080;48.528;8.078;2022-10-31T10:11:55;16.90;99.90
10083;DHT22;5080;48.528;8.078;2022-10-31T10:14:33;16.90;99.90
10083;DHT22;5080;48.528;8.078;2022-10-31T10:17:12;16.90;99.90
10083;DHT22;5080;48.528;8.078;2022-10-31T10:19:56;16.90;99.90
10083;DHT22;5080;48.528;8.078;2022-10-31T10:22:34;16.90;99.90
10083;DHT22;5080;48.528;8.078;2022-10-31T10:25:14;16.90;99.90
10083;DHT22;5080;48.528;8.078;2022-10-31T10:27:49;17.00;99.90
10083;DHT22;5080;48.528;8.078;2022-10-31T10:30:18;16.90;99.90
10083;DHT22;5080;48.528;8.078;2022-10-31T10:32:49;17.00;99.90
10083;DHT22;5080;48.528;8.078;2022-10-31T10:35:22;17.00;99.90
10083;DHT22;5080;48.528;8.078;2022-10-31T10:37:55;17.00;99.90
10083;DHT22;5080;48.528;8.078;2022-10-31T10:40:25;16.90;99.90
10083;DHT22;5080;48.528;8.078;2022-10-31T10:43:00;16.90;99.90
10083;DHT22;5080;48.528;8.078;2022-10-31T10:45:55;16.90;99.90
10083;DHT22;5080;48.528;8.078;2022-10-31T10:48:44;17.10;99.90
10083;DHT22;5080;48.528;8.078;2022-10-31T10:51:20;17.00;99.90
10083;DHT22;5080;48.528;8.078;2022-10-31T10:54:02;17.00;99.90
10083;DHT22;5080;48.528;8.078;2022-10-31T10:56:38;16.90;99.90
10083;DHT22;5080;48.528;8.078;2022-10-31T10:59:09;17.00;99.90
10083;DHT22;5080;48.528;8.078;2022-10-31T11:01:38;17.10;99.90
10083;DHT22;5080;48.528;8.078;2022-10-31T11:04:21;17.10;99.90
10083;DHT22;5080;48.528;8.078;2022-10-31T11:06:57;17.10;99.90
10083;DHT22;5080;48.528;8.078;2022-10-31T11:09:24;17.20;99.90
10083;DHT22;5080;48.528;8.078;2022-10-31T11:11:51;17.10;99.90
10083;DHT22;5080;48.528;8.078;2022-10-31T11:14:18;17.10;99.90
10083;DHT22;5080;48.528;8.078;2022-10-31T11:16:48;16.90;99.90
10083;DHT22;5080;48.528;8.078;2022-10-31T11:19:20;16.80;99.90
10083;DHT22;5080;48.528;8.078;2022-10-31T11:21:48;16.90;99.90
10083;DHT22;5080;48.528;8.078;2022-10-31T11:24:16;17.00;99.90
10083;DHT22;5080;48.528;8.078;2022-10-31T11:26:48;17.10;99.90
10083;DHT22;5080;48.528;8.078;2022-10-31T11:29:19;17.00;99.90
10083;DHT22;5080;48.528;8.078;2022-10-31T11:31:47;17.10;99.90
10083;DHT22;5080;48.528;8.078;2022-10-31T11:34:26;17.10;99.90
10083;DHT22;5080;48.528;8.078;2022-10-31T11:36:58;17.10;99.90
10083;DHT22;5080;48.528;8.078;2022-10-31T11:39:28;17.10;99.90
10083;DHT22;5080;48.528;8.078;2022-10-31T11:41:59;17.10;99.90
10083;DHT22;5080;48.528;8.078;2022-10-31T11:44:28;17.10;99.90
10083;DHT22;5080;48.528;8.078;2022-10-31T11:46:57;17.00;99.90
10083;DHT22;5080;48.528;8.078;2022-10-31T11:49:30;17.00;99.90
10083;DHT22;5080;48.528;8.078;2022-10-31T11:52:00;17.00;99.90
10083;DHT22;5080;48.528;8.078;2022-10-31T11:54:30;17.00;99.90
10083;DHT22;5080;48.528;8.078;2022-10-31T11:56:58;17.00;99.90
10083;DHT22;5080;48.528;8.078;2022-10-31T11:59:27;17.10;99.90
10083;DHT22;5080;48.528;8.078;2022-10-31T12:01:57;17.10;99.90
10083;DHT22;5080;48.528;8.078;2022-10-31T12:04:37;17.10;99.90
10083;DHT22;5080;48.528;8.078;2022-10-31T12:07:05;17.20;99.90
10083;DHT22;5080;48.528;8.078;2022-10-31T12:09:34;17.40;99.90
10083;DHT22;5080;48.528;8.078;2022-10-31T12:12:13;17.50;99.90
10083;DHT22;5080;48.528;8.078;2022-10-31T12:14:51;17.60;99.90
10083;DHT22;5080;48.528;8.078;2022-10-31T12:17:23;17.70;99.90
10083;DHT22;5080;48.528;8.078;2022-10-31T12:20:03;17.90;99.90
10083;DHT22;5080;48.528;8.078;2022-10-31T12:22:39;17.90;99.90
10083;DHT22;5080;48.528;8.078;2022-10-31T12:25:21;18.00;99.90
10083;DHT22;5080;48.528;8.078;2022-10-31T12:28:04;18.00;99.90
10083;DHT22;5080;48.528;8.078;2022-10-31T12:30:49;18.10;99.90
10083;DHT22;5080;48.528;8.078;2022-10-31T12:33:28;18.10;99.90
10083;DHT22;5080;48.528;8.078;2022-10-31T12:36:12;18.20;99.90
10083;DHT22;5080;48.528;8.078;2022-10-31T12:39:02;18.20;99.90
10083;DHT22;5080;48.528;8.078;2022-10-31T12:41:42;18.20;99.90
10083;DHT22;5080;48.528;8.078;2022-10-31T12:44:22;18.30;99.90
10083;DHT22;5080;48.528;8.078;2022-10-31T12:47:06;18.40;99.90
10083;DHT22;5080;48.528;8.078;2022-10-31T12:49:44;18.60;99.90
10083;DHT22;5080;48.528;8.078;2022-10-31T12:52:24;18.80;99.90
10083;DHT22;5080;48.528;8.078;2022-10-31T12:55:08;18.90;99.90
10083;DHT22;5080;48.528;8.078;2022-10-31T12:57:40;19.00;99.90
10083;DHT22;5080;48.528;8.078;2022-10-31T13:00:12;19.00;99.90
10083;DHT22;5080;48.528;8.078;2022-10-31T13:02:46;18.90;99.90
10083;DHT22;5080;48.528;8.078;2022-10-31T13:05:19;18.70;99.90
10083;DHT22;5080;48.528;8.078;2022-10-31T13:07:54;18.70;99.90
10083;DHT22;5080;48.528;8.078;2022-10-31T13:10:25;18.50;99.90
10083;DHT22;5080;48.528;8.078;2022-10-31T13:12:57;18.40;99.90
10083;DHT22;5080;48.528;8.078;2022-10-31T13:15:27;18.40;99.90
10083;DHT22;5080;48.528;8.078;2022-10-31T13:17:57;18.40;99.90
10083;DHT22;5080;48.528;8.078;2022-10-31T13:20:29;18.40;99.90
10083;DHT22;5080;48.528;8.078;2022-10-31T13:23:07;18.30;99.90
10083;DHT22;5080;48.528;8.078;2022-10-31T13:25:40;18.20;99.90
10083;DHT22;5080;48.528;8.078;2022-10-31T13:28:14;18.10;99.90
10083;DHT22;5080;48.528;8.078;2022-10-31T13:30:42;18.00;99.90
10083;DHT22;5080;48.528;8.078;2022-10-31T13:33:14;18.00;99.90
10083;DHT22;5080;48.528;8.078;2022-10-31T13:35:51;18.00;99.90
10083;DHT22;5080;48.528;8.078;2022-10-31T13:38:24;18.00;99.90
10083;DHT22;5080;48.528;8.078;2022-10-31T13:41:00;18.10;99.90
10083;DHT22;5080;48.528;8.078;2022-10-31T13:43:33;18.30;99.90
10083;DHT22;5080;48.528;8.078;2022-10-31T13:46:23;18.40;99.90
10083;DHT22;5080;48.528;8.078;2022-10-31T13:48:50;18.50;99.90
10083;DHT22;5080;48.528;8.078;2022-10-31T13:51:25;18.40;99.90
10083;DHT22;5080;48.528;8.078;2022-10-31T13:53:59;18.30;99.90
10083;DHT22;5080;48.528;8.078;2022-10-31T13:56:28;18.30;99.90
10083;DHT22;5080;48.528;8.078;2022-10-31T13:59:17;18.20;99.90
10083;DHT22;5080;48.528;8.078;2022-10-31T14:01:51;18.20;99.90
10083;DHT22;5080;48.528;8.078;2022-10-31T14:04:20;18.00;99.90
10083;DHT22;5080;48.528;8.078;2022-10-31T14:06:57;18.00;99.90
10083;DHT22;5080;48.528;8.078;2022-10-31T14:09:29;18.10;99.90
10083;DHT22;5080;48.528;8.078;2022-10-31T14:12:00;18.10;99.90
10083;DHT22;5080;48.528;8.078;2022-10-31T14:14:39;18.10;99.90
10083;DHT22;5080;48.528;8.078;2022-10-31T14:17:19;18.00;99.90
10083;DHT22;5080;48.528;8.078;2022-10-31T14:20:24;18.10;99.90
10083;DHT22;5080;48.528;8.078;2022-10-31T14:22:51;18.10;99.90
10083;DHT22;5080;48.528;8.078;2022-10-31T14:25:27;18.10;99.90
10083;DHT22;5080;48.528;8.078;2022-10-31T14:27:55;18.10;99.90
10083;DHT22;5080;48.528;8.078;2022-10-31T14:30:24;18.20;99.90
10083;DHT22;5080;48.528;8.078;2022-10-31T14:32:54;18.20;99.90
10083;DHT22;5080;48.528;8.078;2022-10-31T14:35:25;18.20;99.90
10083;DHT22;5080;48.528;8.078;2022-10-31T14:41:09;18.10;99.90
10083;DHT22;5080;48.528;8.078;2022-10-31T14:44:16;18.10;99.90
10083;DHT22;5080;48.528;8.078;2022-10-31T14:46:50;18.00;99.90
10083;DHT22;5080;48.528;8.078;2022-10-31T14:49:40;18.00;99.90
10083;DHT22;5080;48.528;8.078;2022-10-31T14:52:11;17.90;99.90
10083;DHT22;5080;48.528;8.078;2022-10-31T14:54:40;17.90;99.90
10083;DHT22;5080;48.528;8.078;2022-10-31T14:57:15;17.80;99.90
10083;DHT22;5080;48.528;8.078;2022-10-31T14:59:47;17.80;99.90
10083;DHT22;5080;48.528;8.078;2022-10-31T15:02:20;17.70;99.90
10083;DHT22;5080;48.528;8.078;2022-10-31T15:04:51;17.70;99.90
10083;DHT22;5080;48.528;8.078;2022-10-31T15:07:20;17.60;99.90
10083;DHT22;5080;48.528;8.078;2022-10-31T15:09:55;17.60;99.90
10083;DHT22;5080;48.528;8.078;2022-10-31T15:12:26;17.60;99.90
10083;DHT22;5080;48.528;8.078;2022-10-31T15:14:53;17.60;99.90
10083;DHT22;5080;48.528;8.078;2022-10-31T15:17:21;17.70;99.90
10083;DHT22;5080;48.528;8.078;2022-10-31T15:19:48;17.70;99.90
10083;DHT22;5080;48.528;8.078;2022-10-31T15:22:17;17.80;99.90
10083;DHT22;5080;48.528;8.078;2022-10-31T15:24:45;17.80;99.90
10083;DHT22;5080;48.528;8.078;2022-10-31T15:27:13;17.90;99.90
10083;DHT22;5080;48.528;8.078;2022-10-31T15:29:49;18.10;99.90
10083;DHT22;5080;48.528;8.078;2022-10-31T15:32:19;18.10;99.90
10083;DHT22;5080;48.528;8.078;2022-10-31T15:34:48;18.00;99.90
10083;DHT22;5080;48.528;8.078;2022-10-31T15:37:17;17.90;99.90
10083;DHT22;5080;48.528;8.078;2022-10-31T15:39:45;17.90;99.90
10083;DHT22;5080;48.528;8.078;2022-10-31T15:42:19;17.70;99.90
10083;DHT22;5080;48.528;8.078;2022-10-31T15:44:51;17.60;99.90
10083;DHT22;5080;48.528;8.078;2022-10-31T15:47:21;17.60;99.90
10083;DHT22;5080;48.528;8.078;2022-10-31T15:49:51;17.40;99.90
10083;DHT22;5080;48.528;8.078;2022-10-31T15:52:27;17.40;99.90
10083;DHT22;5080;48.528;8.078;2022-10-31T15:54:57;17.40;99.90
10083;DHT22;5080;48.528;8.078;2022-10-31T15:57:25;17.40;99.90
10083;DHT22;5080;48.528;8.078;2022-10-31T15:59:54;17.50;99.90
10083;DHT22;5080;48.528;8.078;2022-10-31T16:02:23;17.40;99.90
10083;DHT22;5080;48.528;8.078;2022-10-31T16:04:53;17.30;99.90
10083;DHT22;5080;48.528;8.078;2022-10-31T16:07:20;17.20;99.90
10083;DHT22;5080;48.528;8.078;2022-10-31T16:09:56;17.20;99.90
10083;DHT22;5080;48.528;8.078;2022-10-31T16:12:25;17.20;99.90
10083;DHT22;5080;48.528;8.078;2022-10-31T16:14:54;17.20;99.90
10083;DHT22;5080;48.528;8.078;2022-10-31T16:17:23;17.20;99.90